createdAt,value
2023-01-22T00:03:55.506Z,25.40
2023-01-22T00:10:37.829Z,25.05
2023-01-22T00:17:22.780Z,25.40
2023-01-22T00:24:05.497Z,22.83
2023-01-22T00:30:47.796Z,25.20
2023-01-22T00:37:30.540Z,20.90
2023-01-22T00:44:13.067Z,17.77
2023-01-22T00:50:55.442Z,21.08
2023-01-22T00:57:37.766Z,17.60
2023-01-22T01:04:20.235Z,19.58
2023-01-22T01:11:11.318Z,23.05
2023-01-22T01:17:53.587Z,21.95
2023-01-22T01:24:36.515Z,18.98
2023-01-22T01:31:22.663Z,18.48
2023-01-22T01:38:05.944Z,21.33
2023-01-22T01:45:25.189Z,21.30
2023-01-22T01:52:11.867Z,20.20
2023-01-22T01:58:57.128Z,20.98
2023-01-22T02:05:39.552Z,21.05
2023-01-22T02:12:22.540Z,20.45
2023-01-22T02:19:04.953Z,18.17
2023-01-22T02:25:47.270Z,18.80
2023-01-22T02:32:29.680Z,20.05
2023-01-22T02:39:12.661Z,18.15
2023-01-22T02:45:55.139Z,16.83
2023-01-22T02:52:37.678Z,16.48
2023-01-22T02:59:20.070Z,17.75
2023-01-22T03:06:03.023Z,18.60
2023-01-22T03:13:05.486Z,17.27
2023-01-22T03:20:07.107Z,15.50
2023-01-22T03:26:49.463Z,16.75
2023-01-22T03:33:33.264Z,17.60
2023-01-22T03:40:16.734Z,16.00
2023-01-22T03:47:02.728Z,17.58
2023-01-22T03:53:46.242Z,16.70
2023-01-22T04:00:29.329Z,17.52
2023-01-22T04:07:11.864Z,18.88
2023-01-22T04:13:55.971Z,17.15
2023-01-22T04:20:40.009Z,19.73
2023-01-22T04:27:40.612Z,19.08
2023-01-22T04:34:23.207Z,17.33
2023-01-22T04:41:26.063Z,17.85
2023-01-22T04:48:09.205Z,20.95
2023-01-22T04:54:54.322Z,19.23
2023-01-22T05:01:38.591Z,20.85
2023-01-22T05:08:21.162Z,19.85
2023-01-22T05:15:07.259Z,19.15
2023-01-22T05:21:55.065Z,21.45
2023-01-22T05:28:37.515Z,19.67
2023-01-22T05:35:42.890Z,21.73
2023-01-22T05:42:26.742Z,23.90
2023-01-22T05:49:09.490Z,23.92
2023-01-22T05:55:52.071Z,21.52
2023-01-22T06:02:35.709Z,24.38
2023-01-22T06:09:18.224Z,22.88
2023-01-22T06:16:01.766Z,23.48
2023-01-22T06:23:10.331Z,28.20
2023-01-22T06:29:52.701Z,26.45
2023-01-22T06:36:36.188Z,24.58
2023-01-22T06:43:19.506Z,26.70
2023-01-22T06:50:04.673Z,23.65
2023-01-22T06:56:47.007Z,26.40
2023-01-22T07:03:30.405Z,26.90
2023-01-22T07:10:12.968Z,25.98
2023-01-22T07:16:56.285Z,24.27
2023-01-22T07:23:38.742Z,29.83
2023-01-22T07:30:21.219Z,27.77
2023-01-22T07:37:03.985Z,23.73
2023-01-22T07:43:46.433Z,26.50
2023-01-22T07:50:31.477Z,26.20
2023-01-22T07:57:15.641Z,28.33
2023-01-22T08:03:57.952Z,23.95
2023-01-22T08:10:40.652Z,28.73
2023-01-22T08:17:23.146Z,27.48
2023-01-22T08:24:06.012Z,28.48
2023-01-22T08:30:48.425Z,28.13
2023-01-22T08:37:30.711Z,29.15
2023-01-22T08:44:13.939Z,27.67
2023-01-22T08:51:00.553Z,28.83
2023-01-22T08:57:43.463Z,28.45
2023-01-22T09:04:25.979Z,29.33
2023-01-22T09:11:08.318Z,31.52
2023-01-22T09:17:50.769Z,29.35
2023-01-22T09:24:33.696Z,29.88
2023-01-22T09:31:17.218Z,25.10
2023-01-22T09:37:59.606Z,25.42
2023-01-22T09:44:46.920Z,27.00
2023-01-22T09:51:29.503Z,24.35
2023-01-22T09:58:18.438Z,24.05
2023-01-22T10:05:26.011Z,21.48
2023-01-22T10:12:14.237Z,19.30
2023-01-22T10:19:10.839Z,20.42
2023-01-22T10:26:00.154Z,20.95
2023-01-22T10:32:43.177Z,21.45
2023-01-22T10:39:25.694Z,22.55
2023-01-22T10:46:20.911Z,19.38
2023-01-22T10:53:04.706Z,20.33
2023-01-22T10:59:52.450Z,18.58
2023-01-22T11:06:41.859Z,18.85
2023-01-22T11:13:45.894Z,23.73
2023-01-22T11:20:49.105Z,22.27
2023-01-22T11:27:50.408Z,21.63
2023-01-22T11:35:00.669Z,22.25
2023-01-22T11:42:02.795Z,19.90
2023-01-22T11:49:22.230Z,19.27
2023-01-22T11:56:32.928Z,21.27
2023-01-22T12:03:20.831Z,22.02
2023-01-22T12:10:23.684Z,19.88
2023-01-22T12:17:35.327Z,21.40
2023-01-22T12:24:36.667Z,23.30
2023-01-22T12:31:47.999Z,18.08
2023-01-22T12:38:35.194Z,16.40
2023-01-22T12:45:39.112Z,18.45
2023-01-22T12:53:00.835Z,18.25
2023-01-22T12:59:49.851Z,17.05
2023-01-22T13:06:40.764Z,18.30
2023-01-22T13:13:26.871Z,13.48
2023-01-22T13:20:17.689Z,12.90
2023-01-22T13:27:02.712Z,14.82
2023-01-22T13:33:59.500Z,12.75
2023-01-22T13:40:51.086Z,13.05
2023-01-22T13:47:35.489Z,13.32
2023-01-22T13:54:24.368Z,10.63
2023-01-22T14:01:07.480Z,12.95
2023-01-22T14:07:50.851Z,11.32
2023-01-22T14:14:40.313Z,9.35
2023-01-22T14:21:22.653Z,15.20
2023-01-22T14:28:05.538Z,11.43
2023-01-22T14:34:48.342Z,10.95
2023-01-22T14:41:30.776Z,12.43
2023-01-22T14:48:15.258Z,12.73
2023-01-22T14:54:57.696Z,10.57
2023-01-22T15:01:40.102Z,9.77
2023-01-22T15:08:22.468Z,10.30
2023-01-22T15:15:05.675Z,9.45
2023-01-22T15:21:48.044Z,11.15
2023-01-22T15:28:31.020Z,11.10
2023-01-22T15:35:13.616Z,10.82
2023-01-22T15:41:55.915Z,9.52
2023-01-22T15:48:38.263Z,10.23
2023-01-22T15:55:20.859Z,11.32
2023-01-22T16:02:03.180Z,10.40
2023-01-22T16:08:47.250Z,10.80
2023-01-22T16:15:29.494Z,11.20
2023-01-22T16:22:11.936Z,15.57
2023-01-22T16:28:56.336Z,10.95
2023-01-22T16:35:39.177Z,13.65
2023-01-22T16:42:21.478Z,9.43
2023-01-22T16:49:07.358Z,12.27
2023-01-22T16:55:49.813Z,10.20
2023-01-22T17:02:32.183Z,13.80
2023-01-22T17:09:21.948Z,11.82
2023-01-22T17:16:04.922Z,11.63
2023-01-22T17:22:47.245Z,14.45
2023-01-22T17:29:34.838Z,11.23
2023-01-22T17:36:22.494Z,13.45
2023-01-22T17:43:05.410Z,11.65
2023-01-22T17:49:49.073Z,10.82
2023-01-22T17:56:34.716Z,9.35
2023-01-22T18:03:17.077Z,15.05
2023-01-22T18:09:59.497Z,12.15
2023-01-22T18:16:42.115Z,13.75
2023-01-22T18:23:24.710Z,14.63
2023-01-22T18:30:07.740Z,13.80
2023-01-22T18:36:50.297Z,19.95
2023-01-22T18:43:32.813Z,35.00
2023-01-22T18:50:16.628Z,13.30
2023-01-22T18:56:59.009Z,14.25
2023-01-22T19:03:44.159Z,16.17
2023-01-22T19:10:28.155Z,14.85
2023-01-22T19:17:10.486Z,15.93
2023-01-22T19:23:58.143Z,15.85
2023-01-22T19:30:40.722Z,16.27
2023-01-22T19:37:24.279Z,16.70
2023-01-22T19:44:07.858Z,17.98
2023-01-22T19:51:02.583Z,14.90
2023-01-22T19:57:45.200Z,16.85
2023-01-22T20:04:30.710Z,21.25
2023-01-22T20:11:14.266Z,17.55
2023-01-22T20:17:56.745Z,13.60
2023-01-22T20:24:41.073Z,15.70
2023-01-22T20:31:24.119Z,15.55
2023-01-22T20:38:06.561Z,16.17
2023-01-22T20:44:49.110Z,14.38
2023-01-22T20:51:31.658Z,16.98
2023-01-22T20:58:14.437Z,13.23
2023-01-22T21:04:56.899Z,15.30
2023-01-22T21:11:40.991Z,14.35
2023-01-22T21:18:24.059Z,15.18
2023-01-22T21:25:06.615Z,13.80
2023-01-22T21:31:51.184Z,17.23
2023-01-22T21:38:34.138Z,16.77
2023-01-22T21:45:35.416Z,14.75
2023-01-22T21:52:17.727Z,21.60
2023-01-22T21:59:00.025Z,14.50
2023-01-22T22:05:42.727Z,18.90
2023-01-22T22:12:25.974Z,15.85
2023-01-22T22:19:08.376Z,17.38
2023-01-22T22:25:50.856Z,19.23
2023-01-22T22:32:33.165Z,13.80
2023-01-22T22:39:15.419Z,15.77
2023-01-22T22:46:02.222Z,14.73
2023-01-22T22:52:44.885Z,14.75
2023-01-22T22:59:27.252Z,15.57
2023-01-22T23:06:16.079Z,15.68
2023-01-22T23:13:00.927Z,20.23
2023-01-22T23:19:43.570Z,18.30
2023-01-22T23:26:29.696Z,17.85
2023-01-22T23:33:12.088Z,19.85
2023-01-22T23:39:54.913Z,17.80
2023-01-22T23:46:38.745Z,17.45
2023-01-22T23:53:22.117Z,18.60
